Hauptseite
METAR-TAF:

METAR-TAF

Flughäfen :

Flughafen Nürnberg

Nürnberg, Deutschland

Breite: 49-30N, Länge: 011-03E, Höhe: 318 m

Beobachtung

Neuester Wetterbericht von vor 37 Minuten, um 07:20 UTC
Wind 4 kt aus Ost
Temperatur 3°C
Luftfeuchtigkeit 93%
Luftdruck 1021 hPa
Sichtweite: 9000 m
Geschlossene Wolkendecke in der Höhe von 1000 ft
Geschlossene Wolkendecke in der Höhe von 2200 ft

METAR: EDDN 300720Z AUTO 08004KT 9000 OVC010 OVC022 03/02 Q1021 NOSIG

Zeit: 08:57 (07:57 UTC)

Prognose

Neuester Wetterbericht von vor 2 Stunden und 57 Minuten, um 05:00 UTC
Gültige Prognose vom 30 um 06 UTC bis 01 um 06 UTC
Wind 4 kt aus Ost
Sichtweite 10 km oder mehr
Durchbrochene Bewölkung in der Höhe von 1500 ft
Zeitweise
vom 30 um 06 UTC bis 30 um 10 UTC
Durchbrochene Bewölkung in der Höhe von 1000 ft

TAF: EDDN 300500Z 3006/0106 08004KT 9999 BKN015 TEMPO 3006/3010 BKN010

Wetterbeobachtungen und Prognosen von mehr als 4000 Flughäfen (METAR und TAF Bericht).

Die verfügbaren Stationen werden durch gelbe und rote Markierungen auf der Karte dargestellt.

Führen Sie die Maus auf sie, um den Namen der Station zu sehen.

Darauf klicken, um die Beobachtung von Wetterbeobachtungen und Prognosen zu sehen.

Um die Karte zu ändern : klicken Sie auf den grünen Tasten mit einem schwarzen Kreuz Zum Vergrößern, auf den grünen Button mit einem Gedankenstrich zu verkleinern, oder auf die grünen Pfeile für benachbarte Karten.


METAR-TAF: